European Causeway — C6RG7 — position and weather

sailwx.info

Track history (hours):
 
Tides and Currents Weather Stations Pressure Air Temp Water Temp Dewpoint Dewpoint Depression Visibility Wind Speed Wind Dir Waves Ship Positions

European Causeway

Operator: P & O Irish Sea

Last reported at 2014-Oct-31 11:33 UTC. Time now 2014-Oct-31 12:07 UTC.
Position N 54°58' W 005°20'.

Length 165 m; draft 5.5 m.

Type: Passenger vessel. MMSI: 311027000.

Date/timePositionNaut miles runAvg speedWind from/ knotsBaromVisibWave heightAir tempDewpointWater temp
2014-Oct-31 11:33N 54°58' W 005°20'1717.1
2014-Oct-31 10:33N 54°51' W 005°48'0 0.1
2014-Oct-31 09:33N 54°51' W 005°48'1616.2
2014-Oct-31 08:33N 54°58' W 005°23'1311.8
2014-Oct-31 07:28N 54°58' W 005°01'0 0.0
2014-Oct-31 06:28N 54°58' W 005°01'6 6.4
2014-Oct-31 05:33N 55°01' W 005°09'1818.5
2014-Oct-31 04:33N 54°54' W 005°38'6 6.5
2014-Oct-31 03:33N 54°51' W 005°48'0 0.0
2014-Oct-31 02:33N 54°51' W 005°48'6 5.9
2014-Oct-31 01:33N 54°54' W 005°39'1717.2
2014-Oct-31 00:33N 55°01' W 005°12'7 7.4
2014-Oct-30 23:33N 54°58' W 005°01'0 0.0
2014-Oct-30 22:34N 54°58' W 005°01'7 6.2
2014-Oct-30 21:29N 55°02' W 005°11'1617.9
2014-Oct-30 20:33N 54°54' W 005°36'8 7.5
2014-Oct-30 19:33N 54°51' W 005°48'0 0.0
2014-Oct-30 18:32N 54°51' W 005°48'1514.8
2014-Oct-30 17:33N 54°58' W 005°26'1414.2
2014-Oct-30 16:33N 54°58' W 005°01'0 0.0
2014-Oct-30 15:33N 54°58' W 005°01'1211.9
2014-Oct-30 14:33N 54°58' W 005°22'1616.5
2014-Oct-30 13:34N 54°51' W 005°48'0 0.0
2014-Oct-30 12:33N 54°51' W 005°48'1515.4
2014-Oct-30 11:34N 54°58' W 005°24'1313.4
2014-Oct-30 10:34N 54°58' W 005°01'0 0.0
2014-Oct-30 09:33N 54°58' W 005°01'1211.8
2014-Oct-30 08:34N 54°58' W 005°21'1716.6
2014-Oct-30 07:34N 54°51' W 005°48'0 0.1
2014-Oct-30 06:33N 54°51' W 005°48'4 3.6
2014-Oct-30 05:33N 54°53' W 005°43'2221.6
2014-Oct-30 04:33N 55°02' W 005°08'6 5.9
2014-Oct-30 03:33N 54°58' W 005°01'0 0.0
2014-Oct-30 02:33N 54°58' W 005°01'6 6.0
2014-Oct-30 01:33N 55°01' W 005°09'1817.6
2014-Oct-30 00:33N 54°54' W 005°37'7 7.0
2014-Oct-29 23:33N 54°51' W 005°48'0 0.0
2014-Oct-29 22:33N 54°51' W 005°48'4 3.9
2014-Oct-29 21:33N 54°53' W 005°42'1818.2
2014-Oct-29 20:33N 55°01' W 005°14'8 7.5
2014-Oct-29 19:30N 54°58' W 005°01'0 0.1
2014-Oct-29 18:33N 54°58' W 005°01'1212.2
2014-Oct-29 17:34N 54°57' W 005°22'1616.0
2014-Oct-29 16:33N 54°51' W 005°48'0 0.1
2014-Oct-29 15:33N 54°51' W 005°48'1413.8
2014-Oct-29 14:33N 54°58' W 005°27'1514.7
2014-Oct-29 13:33N 54°58' W 005°01'0 0.2
2014-Oct-29 12:33N 54°58' W 005°01'1111.4
2014-Oct-29 11:34N 54°57' W 005°21'1716.8
2014-Oct-29 10:33N 54°51' W 005°48'0 0.1
2014-Oct-29 09:34N 54°51' W 005°48'1313.4
2014-Oct-29 08:34N 54°57' W 005°27'1514.8
2014-Oct-29 07:33N 54°58' W 005°02'1 0.6
2014-Oct-29 06:33N 54°58' W 005°01'5 4.9
2014-Oct-29 05:29N 55°02' W 005°07'1718.1
2014-Oct-29 04:34N 54°55' W 005°34'9 8.8
2014-Oct-29 03:33N 54°51' W 005°48'0 0.0
2014-Oct-29 02:33N 54°51' W 005°48'4 4.1
2014-Oct-29 01:33N 54°53' W 005°42'1817.8
2014-Oct-29 00:33N 55°01' W 005°14'8 7.7
2014-Oct-28 23:30N 54°58' W 005°01'0 0.0
2014-Oct-28 22:30N 54°58' W 005°01'7 6.4
2014-Oct-28 21:29N 55°01' W 005°11'1617.3
2014-Oct-28 20:33N 54°54' W 005°36'8 7.3
2014-Oct-28 19:31N 54°51' W 005°48'0 0.0
2014-Oct-28 18:33N 54°51' W 005°48'1413.9
2014-Oct-28 17:33N 54°58' W 005°27'1514.3
2014-Oct-28 16:30N 54°58' W 005°01'0 0.0
2014-Oct-28 15:33N 54°58' W 005°01'1212.1
2014-Oct-28 14:33N 54°58' W 005°22'1616.2
2014-Oct-28 13:33N 54°51' W 005°48'0 0.1
2014-Oct-28 12:33N 54°51' W 005°48'1414.5
2014-Oct-28 11:34N 54°58' W 005°26'1410.9
2014-Oct-28 10:15N 54°58' W 005°01'0 0.0
2014-Oct-28 09:33N 54°58' W 005°01'1110.6
2014-Oct-28 08:33N 54°58' W 005°19'1817.7
2014-Oct-28 07:33N 54°51' W 005°48'0 0.1
2014-Oct-28 06:33N 54°51' W 005°48'7 6.5
2014-Oct-28 05:33N 54°54' W 005°38'2116.6
2014-Oct-28 04:18N 54°59' W 005°03'2 2.9
2014-Oct-28 03:34N 54°58' W 005°01'0 0.0
2014-Oct-28 02:33N 54°58' W 005°01'7 6.3
2014-Oct-28 01:30N 55°01' W 005°11'1717.7
2014-Oct-28 00:33N 54°55' W 005°38'7 6.9
2014-Oct-27 23:32N 54°51' W 005°48'0 0.0
2014-Oct-27 22:29N 54°51' W 005°48'6 6.7
2014-Oct-27 21:33N 54°54' W 005°39'2115.0
2014-Oct-27 20:08N 54°59' W 005°02'1 2.0
2014-Oct-27 19:30N 54°58' W 005°01'0 0.5
2014-Oct-27 18:33N 54°58' W 005°02'1313.3
2014-Oct-27 17:33N 54°57' W 005°25'1513.8
2014-Oct-27 16:29N 54°51' W 005°48'0 0.0
2014-Oct-27 15:33N 54°51' W 005°48'1515.3
2014-Oct-27 14:34N 54°58' W 005°25'1412.8
2014-Oct-27 13:29N 54°58' W 005°01'0 0.0
2014-Oct-27 12:32N 54°58' W 005°01'1111.7
2014-Oct-27 11:33N 54°58' W 005°21'1716.8
2014-Oct-27 10:33N 54°51' W 005°48'0 0.1
2014-Oct-27 09:33N 54°51' W 005°48'1413.9
2014-Oct-27 08:34N 54°57' W 005°26'1414.0
2014-Oct-27 07:31N 54°58' W 005°01'0 0.2
2014-Oct-27 06:33N 54°58' W 005°01'5 5.0
2014-Oct-27 05:28N 55°02' W 005°08'1618.0
2014-Oct-27 04:34N 54°55' W 005°34'9 8.9
2014-Oct-27 03:33N 54°51' W 005°48'0 0.0
2014-Oct-27 02:33N 54°51' W 005°48'0 0.0
2014-Oct-27 01:33N 54°51' W 005°48'4 4.0
2014-Oct-27 00:34N 54°53' W 005°42'1817.7
2014-Oct-26 23:33N 55°01' W 005°14'2 1.2
2014-Oct-26 21:28N 55°01' W 005°10'1516.6
2014-Oct-26 20:34N 54°55' W 005°34'9 8.6
2014-Oct-26 19:30N 54°51' W 005°48'0 0.0
2014-Oct-26 18:33N 54°51' W 005°48'1313.5
2014-Oct-26 17:33N 54°57' W 005°27'1414.4
2014-Oct-26 16:33N 54°59' W 005°02'1 1.4
2014-Oct-26 15:33N 54°58' W 005°01'6 5.8
2014-Oct-26 14:31N 55°01' W 005°09'1717.5
2014-Oct-26 13:34N 54°54' W 005°36'8 8.0
2014-Oct-26 12:34N 54°51' W 005°48'0 0.0
2014-Oct-26 11:34N 54°51' W 005°48'0 0.0
2014-Oct-26 10:34N 54°51' W 005°48'0 0.0
2014-Oct-26 09:34N 54°51' W 005°48'1413.9
2014-Oct-26 08:33N 54°57' W 005°27'1413.8
2014-Oct-26 07:31N 54°58' W 005°02'1 0.6
2014-Oct-26 06:33N 54°58' W 005°01'0 0.0
2014-Oct-26 05:33N 54°58' W 005°01'0 0.0
2014-Oct-26 04:31N 54°58' W 005°01'0 0.0
2014-Oct-26 03:26N 54°58' W 005°01'0 0.0
2014-Oct-26 02:33N 54°58' W 005°01'0 0.0
2014-Oct-26 01:33N 54°58' W 005°01'0 0.0
2014-Oct-26 00:32N 54°58' W 005°01'0 0.0
2014-Oct-25 23:33N 54°58' W 005°01'0 0.0
2014-Oct-25 22:33N 54°58' W 005°01'0 0.0
2014-Oct-25 21:30N 54°58' W 005°01'5 5.3
2014-Oct-25 20:33N 55°01' W 005°07'1717.2
2014-Oct-25 19:33N 54°54' W 005°34'9 8.8
2014-Oct-25 18:33N 54°51' W 005°48'0 0.0
2014-Oct-25 17:33N 54°51' W 005°48'1413.8
2014-Oct-25 16:34N 54°58' W 005°27'1414.4
2014-Oct-25 15:34N 54°58' W 005°02'1 0.9
2014-Oct-25 14:33N 54°58' W 005°01'1111.3
2014-Oct-25 13:33N 54°58' W 005°21'1717.1
2014-Oct-25 12:33N 54°51' W 005°48'0 0.1
2014-Oct-25 11:33N 54°51' W 005°48'1414.3
2014-Oct-25 10:33N 54°58' W 005°26'1413.5
2014-Oct-25 09:30N 54°58' W 005°01'0 0.1
2014-Oct-25 08:33N 54°58' W 005°01'10 9.8
2014-Oct-25 07:33N 54°59' W 005°18'1917.9
2014-Oct-25 06:31N 54°51' W 005°48'0 0.2
2014-Oct-25 05:33N 54°51' W 005°48'6 6.4
2014-Oct-25 04:33N 54°54' W 005°38'1616.3
2014-Oct-25 03:33N 55°02' W 005°13'8 8.1
2014-Oct-25 02:33N 54°58' W 005°01'0 0.0
2014-Oct-25 01:33N 54°58' W 005°01'5 4.9
2014-Oct-25 00:31N 55°01' W 005°07'1818.9
2014-Oct-24 23:34N 54°54' W 005°36'8 6.9
2014-Oct-24 22:25N 54°51' W 005°48'0 0.0
2014-Oct-24 21:25N 54°51' W 005°48'6 6.9
2014-Oct-24 20:33N 54°54' W 005°39'1817.5
2014-Oct-24 19:33N 55°01' W 005°11'7 6.3
2014-Oct-24 18:26N 54°58' W 005°01'0 0.2
2014-Oct-24 17:33N 54°58' W 005°01'1212.3
2014-Oct-24 16:33N 54°57' W 005°23'1614.9
2014-Oct-24 15:29N 54°51' W 005°48'0 0.0
2014-Oct-24 14:33N 54°51' W 005°48'1514.8
2014-Oct-24 13:33N 54°58' W 005°25'1413.9
2014-Oct-24 12:33N 54°58' W 005°01'0 0.0
2014-Oct-24 11:33N 54°58' W 005°01'1312.6
2014-Oct-24 10:34N 54°57' W 005°23'1615.8
2014-Oct-24 09:33N 54°51' W 005°48'0 0.0
2014-Oct-24 08:34N 54°51' W 005°48'1514.6
2014-Oct-24 07:34N 54°58' W 005°25'1413.2
2014-Oct-24 06:30N 54°58' W 005°01'0 0.0
2014-Oct-24 05:33N 54°58' W 005°01'5 5.3
2014-Oct-24 04:33N 55°01' W 005°07'1918.2
2014-Oct-24 03:30N 54°54' W 005°38'7 7.0
2014-Oct-24 02:33N 54°51' W 005°48'0 0.0
2014-Oct-24 01:33N 54°51' W 005°48'6 5.7
2014-Oct-24 00:33N 54°54' W 005°40'1717.4
2014-Oct-23 23:33N 55°01' W 005°12'7 6.5
2014-Oct-23 22:25N 54°58' W 005°01'0 0.0
2014-Oct-23 21:22N 54°58' W 005°01'7 8.1
2014-Oct-23 20:33N 55°01' W 005°11'1716.7
2014-Oct-23 19:33N 54°54' W 005°37'7 6.7
2014-Oct-23 18:32N 54°51' W 005°48'2 1.6
2014-Oct-23 17:33N 54°52' W 005°47'2019.5
2014-Oct-23 16:33N 55°00' W 005°16'9 8.3
2014-Oct-23 15:29N 54°58' W 005°01'5 4.9
2014-Oct-23 14:22N 55°02' W 005°08'1720.6
2014-Oct-23 13:33N 54°55' W 005°34'9 8.6
2014-Oct-23 12:34N 54°51' W 005°48'6 6.0
2014-Oct-23 11:34N 54°54' W 005°39'2117.1
2014-Oct-23 10:19N 54°59' W 005°03'2 2.4
2014-Oct-23 09:30N 54°58' W 005°01'0 0.0
2014-Oct-23 08:33N 54°58' W 005°01'1212.1
2014-Oct-23 07:33N 54°57' W 005°22'1615.7
2014-Oct-23 06:31N 54°51' W 005°48'0 0.0
2014-Oct-23 05:33N 54°51' W 005°48'7 7.3
2014-Oct-23 04:33N 54°55' W 005°37'2018.1
2014-Oct-23 03:27N 54°59' W 005°03'2 2.2
2014-Oct-23 02:33N 54°58' W 005°01'0 0.0
2014-Oct-23 01:32N 54°58' W 005°01'6 6.1
2014-Oct-23 00:30N 55°01' W 005°10'2021.4
2014-Oct-22 23:34N 54°53' W 005°42'4 4.1
2014-Oct-22 22:33N 54°51' W 005°48'0 0.0
2014-Oct-22 21:33N 54°51' W 005°48'1716.8
2014-Oct-22 20:33N 54°59' W 005°22'12 9.9
2014-Oct-22 19:20N 54°58' W 005°01'0 0.0
2014-Oct-22 18:33N 54°58' W 005°01'1 1.4
2014-Oct-22 17:34N 54°59' W 005°02'1616.1
2014-Oct-22 16:34N 54°56' W 005°30'1111.2
2014-Oct-22 15:33N 54°51' W 005°48'0 0.0
2014-Oct-22 14:33N 54°51' W 005°48'1616.4
2014-Oct-22 13:33N 54°59' W 005°23'1212.5
2014-Oct-22 12:33N 54°58' W 005°01'0 0.0
2014-Oct-22 11:33N 54°58' W 005°01'0 0.0
2014-Oct-22 10:33N 54°58' W 005°01'1110.9
2014-Oct-22 09:33N 54°58' W 005°20'1817.7
2014-Oct-22 08:33N 54°51' W 005°48'0 0.0
2014-Oct-22 07:33N 54°51' W 005°48'0 0.0
2014-Oct-22 06:30N 54°51' W 005°48'1617.2
2014-Oct-22 05:33N 54°59' W 005°23'1312.5
2014-Oct-22 04:33N 54°58' W 005°01'0 0.0
2014-Oct-22 03:28N 54°58' W 005°01'0 0.0
2014-Oct-22 02:33N 54°58' W 005°01'0 0.0
2014-Oct-22 01:33N 54°58' W 005°01'1514.7
2014-Oct-22 00:33N 54°57' W 005°27'1313.6
2014-Oct-21 23:33N 54°51' W 005°48'0 0.0
2014-Oct-21 22:33N 54°51' W 005°48'0 0.0
2014-Oct-21 21:33N 54°51' W 005°48'1312.8
2014-Oct-21 20:33N 54°57' W 005°28'1515.4
2014-Oct-21 19:33N 54°58' W 005°02'0 0.5
2014-Oct-21 18:29N 54°58' W 005°01'0 0.0
2014-Oct-21 17:33N 54°58' W 005°01'0 0.0
2014-Oct-21 16:33N 54°58' W 005°01'0 0.0
2014-Oct-21 15:30N 54°58' W 005°01'0 0.0
2014-Oct-21 14:33N 54°58' W 005°01'0 0.0
2014-Oct-21 13:33N 54°58' W 005°01'0 0.0
2014-Oct-21 12:33N 54°58' W 005°01'  
Track history (hours):
 
Tides and Currents Weather Stations Pressure Air Temp Water Temp Dewpoint Dewpoint Depression Visibility Wind Speed Wind Dir Waves Ship Positions

European Causeway

Operator: P & O Irish Sea

Last reported at 2014-Oct-31 11:33 UTC. Time now 2014-Oct-31 12:07 UTC.
Position N 54°58' W 005°20'.

Length 165 m; draft 5.5 m.

Type: Passenger vessel. MMSI: 311027000.

Date/timePositionNaut miles runAvg speedWind from/ knotsBaromVisibWave heightAir tempDewpointWater temp
2014-Oct-31 11:33N 54°58' W 005°20'1717.1
2014-Oct-31 10:33N 54°51' W 005°48'0 0.1
2014-Oct-31 09:33N 54°51' W 005°48'1616.2
2014-Oct-31 08:33N 54°58' W 005°23'1311.8
2014-Oct-31 07:28N 54°58' W 005°01'0 0.0
2014-Oct-31 06:28N 54°58' W 005°01'6 6.4
2014-Oct-31 05:33N 55°01' W 005°09'1818.5
2014-Oct-31 04:33N 54°54' W 005°38'6 6.5
2014-Oct-31 03:33N 54°51' W 005°48'0 0.0
2014-Oct-31 02:33N 54°51' W 005°48'6 5.9
2014-Oct-31 01:33N 54°54' W 005°39'1717.2
2014-Oct-31 00:33N 55°01' W 005°12'7 7.4
2014-Oct-30 23:33N 54°58' W 005°01'0 0.0
2014-Oct-30 22:34N 54°58' W 005°01'7 6.2
2014-Oct-30 21:29N 55°02' W 005°11'1617.9
2014-Oct-30 20:33N 54°54' W 005°36'8 7.5
2014-Oct-30 19:33N 54°51' W 005°48'0 0.0
2014-Oct-30 18:32N 54°51' W 005°48'1514.8
2014-Oct-30 17:33N 54°58' W 005°26'1414.2
2014-Oct-30 16:33N 54°58' W 005°01'0 0.0
2014-Oct-30 15:33N 54°58' W 005°01'1211.9
2014-Oct-30 14:33N 54°58' W 005°22'1616.5
2014-Oct-30 13:34N 54°51' W 005°48'0 0.0
2014-Oct-30 12:33N 54°51' W 005°48'1515.4
2014-Oct-30 11:34N 54°58' W 005°24'1313.4
2014-Oct-30 10:34N 54°58' W 005°01'0 0.0
2014-Oct-30 09:33N 54°58' W 005°01'1211.8
2014-Oct-30 08:34N 54°58' W 005°21'1716.6
2014-Oct-30 07:34N 54°51' W 005°48'0 0.1
2014-Oct-30 06:33N 54°51' W 005°48'4 3.6
2014-Oct-30 05:33N 54°53' W 005°43'2221.6
2014-Oct-30 04:33N 55°02' W 005°08'6 5.9
2014-Oct-30 03:33N 54°58' W 005°01'0 0.0
2014-Oct-30 02:33N 54°58' W 005°01'6 6.0
2014-Oct-30 01:33N 55°01' W 005°09'1817.6
2014-Oct-30 00:33N 54°54' W 005°37'7 7.0
2014-Oct-29 23:33N 54°51' W 005°48'0 0.0
2014-Oct-29 22:33N 54°51' W 005°48'4 3.9
2014-Oct-29 21:33N 54°53' W 005°42'1818.2
2014-Oct-29 20:33N 55°01' W 005°14'8 7.5
2014-Oct-29 19:30N 54°58' W 005°01'0 0.1
2014-Oct-29 18:33N 54°58' W 005°01'1212.2
2014-Oct-29 17:34N 54°57' W 005°22'1616.0
2014-Oct-29 16:33N 54°51' W 005°48'0 0.1
2014-Oct-29 15:33N 54°51' W 005°48'1413.8
2014-Oct-29 14:33N 54°58' W 005°27'1514.7
2014-Oct-29 13:33N 54°58' W 005°01'0 0.2
2014-Oct-29 12:33N 54°58' W 005°01'1111.4
2014-Oct-29 11:34N 54°57' W 005°21'1716.8
2014-Oct-29 10:33N 54°51' W 005°48'0 0.1
2014-Oct-29 09:34N 54°51' W 005°48'1313.4
2014-Oct-29 08:34N 54°57' W 005°27'1514.8
2014-Oct-29 07:33N 54°58' W 005°02'1 0.6
2014-Oct-29 06:33N 54°58' W 005°01'5 4.9
2014-Oct-29 05:29N 55°02' W 005°07'1718.1
2014-Oct-29 04:34N 54°55' W 005°34'9 8.8
2014-Oct-29 03:33N 54°51' W 005°48'0 0.0
2014-Oct-29 02:33N 54°51' W 005°48'4 4.1
2014-Oct-29 01:33N 54°53' W 005°42'1817.8
2014-Oct-29 00:33N 55°01' W 005°14'8 7.7
2014-Oct-28 23:30N 54°58' W 005°01'0 0.0
2014-Oct-28 22:30N 54°58' W 005°01'7 6.4
2014-Oct-28 21:29N 55°01' W 005°11'1617.3
2014-Oct-28 20:33N 54°54' W 005°36'8 7.3
2014-Oct-28 19:31N 54°51' W 005°48'0 0.0
2014-Oct-28 18:33N 54°51' W 005°48'1413.9
2014-Oct-28 17:33N 54°58' W 005°27'1514.3
2014-Oct-28 16:30N 54°58' W 005°01'0 0.0
2014-Oct-28 15:33N 54°58' W 005°01'1212.1
2014-Oct-28 14:33N 54°58' W 005°22'1616.2
2014-Oct-28 13:33N 54°51' W 005°48'0 0.1
2014-Oct-28 12:33N 54°51' W 005°48'1414.5
2014-Oct-28 11:34N 54°58' W 005°26'1410.9
2014-Oct-28 10:15N 54°58' W 005°01'0 0.0
2014-Oct-28 09:33N 54°58' W 005°01'1110.6
2014-Oct-28 08:33N 54°58' W 005°19'1817.7
2014-Oct-28 07:33N 54°51' W 005°48'0 0.1
2014-Oct-28 06:33N 54°51' W 005°48'7 6.5
2014-Oct-28 05:33N 54°54' W 005°38'2116.6
2014-Oct-28 04:18N 54°59' W 005°03'2 2.9
2014-Oct-28 03:34N 54°58' W 005°01'0 0.0
2014-Oct-28 02:33N 54°58' W 005°01'7 6.3
2014-Oct-28 01:30N 55°01' W 005°11'1717.7
2014-Oct-28 00:33N 54°55' W 005°38'7 6.9
2014-Oct-27 23:32N 54°51' W 005°48'0 0.0
2014-Oct-27 22:29N 54°51' W 005°48'6 6.7
2014-Oct-27 21:33N 54°54' W 005°39'2115.0
2014-Oct-27 20:08N 54°59' W 005°02'1 2.0
2014-Oct-27 19:30N 54°58' W 005°01'0 0.5
2014-Oct-27 18:33N 54°58' W 005°02'1313.3
2014-Oct-27 17:33N 54°57' W 005°25'1513.8
2014-Oct-27 16:29N 54°51' W 005°48'0 0.0
2014-Oct-27 15:33N 54°51' W 005°48'1515.3
2014-Oct-27 14:34N 54°58' W 005°25'1412.8
2014-Oct-27 13:29N 54°58' W 005°01'0 0.0
2014-Oct-27 12:32N 54°58' W 005°01'1111.7
2014-Oct-27 11:33N 54°58' W 005°21'1716.8
2014-Oct-27 10:33N 54°51' W 005°48'0 0.1
2014-Oct-27 09:33N 54°51' W 005°48'1413.9
2014-Oct-27 08:34N 54°57' W 005°26'1414.0
2014-Oct-27 07:31N 54°58' W 005°01'0 0.2
2014-Oct-27 06:33N 54°58' W 005°01'5 5.0
2014-Oct-27 05:28N 55°02' W 005°08'1618.0
2014-Oct-27 04:34N 54°55' W 005°34'9 8.9
2014-Oct-27 03:33N 54°51' W 005°48'0 0.0
2014-Oct-27 02:33N 54°51' W 005°48'0 0.0
2014-Oct-27 01:33N 54°51' W 005°48'4 4.0
2014-Oct-27 00:34N 54°53' W 005°42'1817.7
2014-Oct-26 23:33N 55°01' W 005°14'2 1.2
2014-Oct-26 21:28N 55°01' W 005°10'1516.6
2014-Oct-26 20:34N 54°55' W 005°34'9 8.6
2014-Oct-26 19:30N 54°51' W 005°48'0 0.0
2014-Oct-26 18:33N 54°51' W 005°48'1313.5
2014-Oct-26 17:33N 54°57' W 005°27'1414.4
2014-Oct-26 16:33N 54°59' W 005°02'1 1.4
2014-Oct-26 15:33N 54°58' W 005°01'6 5.8
2014-Oct-26 14:31N 55°01' W 005°09'1717.5
2014-Oct-26 13:34N 54°54' W 005°36'8 8.0
2014-Oct-26 12:34N 54°51' W 005°48'0 0.0
2014-Oct-26 11:34N 54°51' W 005°48'0 0.0
2014-Oct-26 10:34N 54°51' W 005°48'0 0.0
2014-Oct-26 09:34N 54°51' W 005°48'1413.9
2014-Oct-26 08:33N 54°57' W 005°27'1413.8
2014-Oct-26 07:31N 54°58' W 005°02'1 0.6
2014-Oct-26 06:33N 54°58' W 005°01'0 0.0
2014-Oct-26 05:33N 54°58' W 005°01'0 0.0
2014-Oct-26 04:31N 54°58' W 005°01'0 0.0
2014-Oct-26 03:26N 54°58' W 005°01'0 0.0
2014-Oct-26 02:33N 54°58' W 005°01'0 0.0
2014-Oct-26 01:33N 54°58' W 005°01'0 0.0
2014-Oct-26 00:32N 54°58' W 005°01'0 0.0
2014-Oct-25 23:33N 54°58' W 005°01'0 0.0
2014-Oct-25 22:33N 54°58' W 005°01'0 0.0
2014-Oct-25 21:30N 54°58' W 005°01'5 5.3
2014-Oct-25 20:33N 55°01' W 005°07'1717.2
2014-Oct-25 19:33N 54°54' W 005°34'9 8.8
2014-Oct-25 18:33N 54°51' W 005°48'0 0.0
2014-Oct-25 17:33N 54°51' W 005°48'1413.8
2014-Oct-25 16:34N 54°58' W 005°27'1414.4
2014-Oct-25 15:34N 54°58' W 005°02'1 0.9
2014-Oct-25 14:33N 54°58' W 005°01'1111.3
2014-Oct-25 13:33N 54°58' W 005°21'1717.1
2014-Oct-25 12:33N 54°51' W 005°48'0 0.1
2014-Oct-25 11:33N 54°51' W 005°48'1414.3
2014-Oct-25 10:33N 54°58' W 005°26'1413.5
2014-Oct-25 09:30N 54°58' W 005°01'0 0.1
2014-Oct-25 08:33N 54°58' W 005°01'10 9.8
2014-Oct-25 07:33N 54°59' W 005°18'1917.9
2014-Oct-25 06:31N 54°51' W 005°48'0 0.2
2014-Oct-25 05:33N 54°51' W 005°48'6 6.4
2014-Oct-25 04:33N 54°54' W 005°38'1616.3
2014-Oct-25 03:33N 55°02' W 005°13'8 8.1
2014-Oct-25 02:33N 54°58' W 005°01'0 0.0
2014-Oct-25 01:33N 54°58' W 005°01'5 4.9
2014-Oct-25 00:31N 55°01' W 005°07'1818.9
2014-Oct-24 23:34N 54°54' W 005°36'8 6.9
2014-Oct-24 22:25N 54°51' W 005°48'0 0.0
2014-Oct-24 21:25N 54°51' W 005°48'6 6.9
2014-Oct-24 20:33N 54°54' W 005°39'1817.5
2014-Oct-24 19:33N 55°01' W 005°11'7 6.3
2014-Oct-24 18:26N 54°58' W 005°01'0 0.2
2014-Oct-24 17:33N 54°58' W 005°01'1212.3
2014-Oct-24 16:33N 54°57' W 005°23'1614.9
2014-Oct-24 15:29N 54°51' W 005°48'0 0.0
2014-Oct-24 14:33N 54°51' W 005°48'1514.8
2014-Oct-24 13:33N 54°58' W 005°25'1413.9
2014-Oct-24 12:33N 54°58' W 005°01'0 0.0
2014-Oct-24 11:33N 54°58' W 005°01'1312.6
2014-Oct-24 10:34N 54°57' W 005°23'1615.8
2014-Oct-24 09:33N 54°51' W 005°48'0 0.0
2014-Oct-24 08:34N 54°51' W 005°48'1514.6
2014-Oct-24 07:34N 54°58' W 005°25'1413.2
2014-Oct-24 06:30N 54°58' W 005°01'0 0.0
2014-Oct-24 05:33N 54°58' W 005°01'5 5.3
2014-Oct-24 04:33N 55°01' W 005°07'1918.2
2014-Oct-24 03:30N 54°54' W 005°38'7 7.0
2014-Oct-24 02:33N 54°51' W 005°48'0 0.0
2014-Oct-24 01:33N 54°51' W 005°48'6 5.7
2014-Oct-24 00:33N 54°54' W 005°40'1717.4
2014-Oct-23 23:33N 55°01' W 005°12'7 6.5
2014-Oct-23 22:25N 54°58' W 005°01'0 0.0
2014-Oct-23 21:22N 54°58' W 005°01'7 8.1
2014-Oct-23 20:33N 55°01' W 005°11'1716.7
2014-Oct-23 19:33N 54°54' W 005°37'7 6.7
2014-Oct-23 18:32N 54°51' W 005°48'2 1.6
2014-Oct-23 17:33N 54°52' W 005°47'2019.5
2014-Oct-23 16:33N 55°00' W 005°16'9 8.3
2014-Oct-23 15:29N 54°58' W 005°01'5 4.9
2014-Oct-23 14:22N 55°02' W 005°08'1720.6
2014-Oct-23 13:33N 54°55' W 005°34'9 8.6
2014-Oct-23 12:34N 54°51' W 005°48'6 6.0
2014-Oct-23 11:34N 54°54' W 005°39'2117.1
2014-Oct-23 10:19N 54°59' W 005°03'2 2.4
2014-Oct-23 09:30N 54°58' W 005°01'0 0.0
2014-Oct-23 08:33N 54°58' W 005°01'1212.1
2014-Oct-23 07:33N 54°57' W 005°22'1615.7
2014-Oct-23 06:31N 54°51' W 005°48'0 0.0
2014-Oct-23 05:33N 54°51' W 005°48'7 7.3
2014-Oct-23 04:33N 54°55' W 005°37'2018.1
2014-Oct-23 03:27N 54°59' W 005°03'2 2.2
2014-Oct-23 02:33N 54°58' W 005°01'0 0.0
2014-Oct-23 01:32N 54°58' W 005°01'6 6.1
2014-Oct-23 00:30N 55°01' W 005°10'2021.4
2014-Oct-22 23:34N 54°53' W 005°42'4 4.1
2014-Oct-22 22:33N 54°51' W 005°48'0 0.0
2014-Oct-22 21:33N 54°51' W 005°48'1716.8
2014-Oct-22 20:33N 54°59' W 005°22'12 9.9
2014-Oct-22 19:20N 54°58' W 005°01'0 0.0
2014-Oct-22 18:33N 54°58' W 005°01'1 1.4
2014-Oct-22 17:34N 54°59' W 005°02'1616.1
2014-Oct-22 16:34N 54°56' W 005°30'1111.2
2014-Oct-22 15:33N 54°51' W 005°48'0 0.0
2014-Oct-22 14:33N 54°51' W 005°48'1616.4
2014-Oct-22 13:33N 54°59' W 005°23'1212.5
2014-Oct-22 12:33N 54°58' W 005°01'0 0.0
2014-Oct-22 11:33N 54°58' W 005°01'0 0.0
2014-Oct-22 10:33N 54°58' W 005°01'1110.9
2014-Oct-22 09:33N 54°58' W 005°20'1817.7
2014-Oct-22 08:33N 54°51' W 005°48'0 0.0
2014-Oct-22 07:33N 54°51' W 005°48'0 0.0
2014-Oct-22 06:30N 54°51' W 005°48'1617.2
2014-Oct-22 05:33N 54°59' W 005°23'1312.5
2014-Oct-22 04:33N 54°58' W 005°01'0 0.0
2014-Oct-22 03:28N 54°58' W 005°01'0 0.0
2014-Oct-22 02:33N 54°58' W 005°01'0 0.0
2014-Oct-22 01:33N 54°58' W 005°01'1514.7
2014-Oct-22 00:33N 54°57' W 005°27'1313.6
2014-Oct-21 23:33N 54°51' W 005°48'0 0.0
2014-Oct-21 22:33N 54°51' W 005°48'0 0.0
2014-Oct-21 21:33N 54°51' W 005°48'1312.8
2014-Oct-21 20:33N 54°57' W 005°28'1515.4
2014-Oct-21 19:33N 54°58' W 005°02'0 0.5
2014-Oct-21 18:29N 54°58' W 005°01'0 0.0
2014-Oct-21 17:33N 54°58' W 005°01'0 0.0
2014-Oct-21 16:33N 54°58' W 005°01'0 0.0
2014-Oct-21 15:30N 54°58' W 005°01'0 0.0
2014-Oct-21 14:33N 54°58' W 005°01'0 0.0
2014-Oct-21 13:33N 54°58' W 005°01'0 0.0
2014-Oct-21 12:33N 54°58' W 005°01'  

Dump ship's entire track history